createdAt,value
2022-10-10T00:01:26.093Z,99.90
2022-10-10T00:03:54.331Z,99.90
2022-10-10T00:06:22.625Z,99.90
2022-10-10T00:08:50.712Z,99.90
2022-10-10T00:11:21.280Z,99.90
2022-10-10T00:13:49.528Z,99.90
2022-10-10T00:16:17.327Z,99.90
2022-10-10T00:18:45.358Z,99.90
2022-10-10T00:21:12.775Z,99.90
2022-10-10T00:23:40.276Z,99.90
2022-10-10T00:26:09.187Z,99.90
2022-10-10T00:28:38.823Z,99.90
2022-10-10T00:31:08.616Z,99.90
2022-10-10T00:33:37.399Z,99.90
2022-10-10T00:36:06.251Z,99.90
2022-10-10T00:38:34.360Z,99.90
2022-10-10T00:41:02.387Z,99.90
2022-10-10T00:43:30.984Z,99.90
2022-10-10T00:45:58.511Z,99.90
2022-10-10T00:48:33.548Z,99.90
2022-10-10T00:51:19.864Z,99.90
2022-10-10T00:53:53.229Z,99.90
2022-10-10T00:56:26.921Z,99.90
2022-10-10T00:58:56.838Z,99.90
2022-10-10T01:01:24.509Z,99.90
2022-10-10T01:03:53.922Z,99.90
2022-10-10T01:06:21.332Z,99.90
2022-10-10T01:08:48.749Z,99.90
2022-10-10T01:11:37.185Z,99.90
2022-10-10T01:14:21.056Z,99.90
2022-10-10T01:16:51.609Z,99.90
2022-10-10T01:19:47.540Z,99.90
2022-10-10T01:22:32.739Z,99.90
2022-10-10T01:25:02.830Z,99.90
2022-10-10T01:27:34.951Z,99.90
2022-10-10T01:30:16.687Z,99.90
2022-10-10T01:33:13.159Z,99.90
2022-10-10T01:36:04.471Z,99.90
2022-10-10T01:38:37.801Z,99.90
2022-10-10T01:41:16.275Z,99.90
2022-10-10T01:43:44.012Z,99.90
2022-10-10T01:46:17.540Z,99.90
2022-10-10T01:48:48.079Z,99.90
2022-10-10T01:51:30.419Z,99.90
2022-10-10T01:54:32.910Z,99.90
2022-10-10T01:57:10.943Z,99.90
2022-10-10T01:59:46.900Z,99.90
2022-10-10T02:02:37.145Z,99.90
2022-10-10T02:05:16.167Z,99.90
2022-10-10T02:08:09.064Z,99.90
2022-10-10T02:10:46.755Z,99.90
2022-10-10T02:13:16.762Z,99.90
2022-10-10T02:15:48.838Z,99.90
2022-10-10T02:18:20.127Z,99.90
2022-10-10T02:20:48.868Z,99.90
2022-10-10T02:23:20.571Z,99.90
2022-10-10T02:25:53.844Z,99.90
2022-10-10T02:28:28.385Z,99.90
2022-10-10T02:31:03.518Z,99.90
2022-10-10T02:33:43.807Z,99.90
2022-10-10T02:36:12.954Z,99.90
2022-10-10T02:38:42.293Z,99.90
2022-10-10T02:41:14.844Z,99.90
2022-10-10T02:43:42.638Z,99.90
2022-10-10T02:46:13.971Z,99.90
2022-10-10T02:48:41.467Z,99.90
2022-10-10T02:51:09.701Z,99.90
2022-10-10T02:53:38.412Z,99.90
2022-10-10T02:56:06.133Z,99.90
2022-10-10T02:58:33.512Z,99.90
2022-10-10T03:01:01.091Z,99.90
2022-10-10T03:03:28.582Z,99.90
2022-10-10T03:05:55.961Z,99.90
2022-10-10T03:08:23.355Z,99.90
2022-10-10T03:10:55.349Z,99.90
2022-10-10T03:13:23.298Z,99.90
2022-10-10T03:15:50.872Z,99.90
2022-10-10T03:18:18.281Z,99.90
2022-10-10T03:20:47.111Z,99.90
2022-10-10T03:23:14.557Z,99.90
2022-10-10T03:25:45.446Z,99.90
2022-10-10T03:28:12.985Z,99.90
2022-10-10T03:30:40.592Z,99.90
2022-10-10T03:33:08.797Z,99.90
2022-10-10T03:35:36.241Z,99.90
2022-10-10T03:38:04.570Z,99.90
2022-10-10T03:40:32.309Z,99.90
2022-10-10T03:43:00.045Z,99.90
2022-10-10T03:45:27.559Z,99.90
2022-10-10T03:47:54.952Z,99.90
2022-10-10T03:50:22.369Z,99.90
2022-10-10T03:52:49.991Z,99.90
2022-10-10T03:55:17.862Z,99.90
2022-10-10T03:57:45.271Z,99.90
2022-10-10T04:00:13.511Z,99.90
2022-10-10T04:02:41.215Z,99.90
2022-10-10T04:05:08.825Z,99.90
2022-10-10T04:07:36.471Z,99.90
2022-10-10T04:10:04.376Z,99.90
2022-10-10T04:12:31.779Z,99.90
2022-10-10T04:14:59.250Z,99.90
2022-10-10T04:17:26.712Z,99.90
2022-10-10T04:19:54.260Z,99.90
2022-10-10T04:22:21.683Z,99.90
2022-10-10T04:24:49.063Z,99.90
2022-10-10T04:27:17.009Z,99.90
2022-10-10T04:29:44.430Z,99.90
2022-10-10T04:32:11.899Z,99.90
2022-10-10T04:34:39.323Z,99.90
2022-10-10T04:37:06.670Z,99.90
2022-10-10T04:39:34.086Z,99.90
2022-10-10T04:42:01.479Z,99.90
2022-10-10T04:44:28.985Z,99.90
2022-10-10T04:46:56.334Z,99.90
2022-10-10T04:49:23.787Z,99.90
2022-10-10T04:51:51.249Z,99.90
2022-10-10T04:54:19.037Z,99.90
2022-10-10T04:56:46.447Z,99.90
2022-10-10T04:59:13.845Z,99.90
2022-10-10T05:01:41.311Z,99.90
2022-10-10T05:04:08.755Z,99.90
2022-10-10T05:06:36.192Z,99.90
2022-10-10T05:09:03.877Z,99.90
2022-10-10T05:11:31.359Z,99.90
2022-10-10T05:13:58.778Z,99.90
2022-10-10T05:16:26.422Z,99.90
2022-10-10T05:18:53.993Z,99.90
2022-10-10T05:21:21.440Z,99.90
2022-10-10T05:23:48.818Z,99.90
2022-10-10T05:26:16.300Z,99.90
2022-10-10T05:28:43.700Z,99.90
2022-10-10T05:31:11.232Z,99.90
2022-10-10T05:33:38.672Z,99.90
2022-10-10T05:36:09.045Z,99.90
2022-10-10T05:38:36.948Z,99.90
2022-10-10T05:41:05.251Z,99.90
2022-10-10T05:43:32.721Z,99.90
2022-10-10T05:46:00.109Z,99.90
2022-10-10T05:48:27.641Z,99.90
2022-10-10T05:50:57.292Z,99.90
2022-10-10T05:53:28.331Z,99.90
2022-10-10T05:55:55.771Z,99.90
2022-10-10T05:58:23.087Z,99.90
2022-10-10T06:00:50.504Z,99.90
2022-10-10T06:03:18.043Z,99.90
2022-10-10T06:05:51.013Z,99.90
2022-10-10T06:08:18.389Z,99.90
2022-10-10T06:10:46.493Z,99.90
2022-10-10T06:13:20.318Z,99.90
2022-10-10T06:15:52.324Z,98.10
2022-10-10T06:18:19.740Z,99.90
2022-10-10T06:20:47.185Z,82.70
2022-10-10T06:23:14.619Z,80.60
2022-10-10T06:25:42.360Z,62.10
2022-10-10T06:28:11.266Z,82.40
2022-10-10T06:30:43.794Z,45.20
2022-10-10T06:33:12.643Z,45.00
2022-10-10T06:35:44.435Z,36.80
2022-10-10T06:38:12.942Z,22.80
2022-10-10T06:40:41.190Z,1.00
2022-10-10T06:43:12.388Z,10.90
2022-10-10T06:45:42.461Z,1.00
2022-10-10T06:48:14.355Z,1.00
2022-10-10T06:50:41.969Z,1.00
2022-10-10T06:53:09.417Z,14.70
2022-10-10T06:55:36.952Z,3.80
2022-10-10T06:58:04.452Z,1.00
2022-10-10T07:00:31.906Z,1.00
2022-10-10T07:02:59.322Z,1.00
2022-10-10T07:05:26.741Z,1.00
2022-10-10T07:07:54.152Z,1.00
2022-10-10T07:10:21.617Z,1.00
2022-10-10T07:12:49.083Z,1.00
2022-10-10T07:15:16.692Z,1.00
2022-10-10T07:17:44.082Z,1.00
2022-10-10T07:20:11.533Z,99.90
2022-10-10T07:22:38.929Z,1.00
2022-10-10T07:25:06.676Z,99.90
2022-10-10T07:27:34.084Z,99.90
2022-10-10T07:30:01.624Z,1.00
2022-10-10T07:32:29.011Z,99.90
2022-10-10T07:34:58.520Z,99.90
2022-10-10T07:37:25.974Z,1.00
2022-10-10T07:39:54.187Z,1.00
2022-10-10T07:42:21.658Z,99.90
2022-10-10T07:44:49.028Z,99.90
2022-10-10T07:47:16.452Z,99.90
2022-10-10T07:49:43.834Z,99.90
2022-10-10T07:52:11.249Z,1.00
2022-10-10T07:54:38.596Z,1.00
2022-10-10T07:57:05.998Z,1.00
2022-10-10T07:59:33.592Z,99.90
2022-10-10T08:02:01.097Z,49.20
2022-10-10T08:04:28.627Z,65.50
2022-10-10T08:07:16.014Z,68.80
2022-10-10T08:09:43.416Z,1.00
2022-10-10T08:12:10.775Z,99.90
2022-10-10T08:14:38.236Z,1.00
2022-10-10T08:17:05.609Z,99.90
2022-10-10T08:19:33.032Z,99.90
2022-10-10T08:22:00.762Z,99.90
2022-10-10T08:24:28.310Z,1.00
2022-10-10T08:26:55.733Z,1.00
2022-10-10T08:29:23.218Z,1.00
2022-10-10T08:31:50.750Z,99.90
2022-10-10T08:34:18.154Z,99.90
2022-10-10T08:36:45.571Z,1.00
2022-10-10T08:39:12.980Z,99.90
2022-10-10T08:41:51.606Z,5.20
2022-10-10T08:44:26.892Z,99.90
2022-10-10T08:46:58.451Z,99.90
2022-10-10T08:49:29.982Z,99.90
2022-10-10T08:52:32.471Z,99.90
2022-10-10T08:55:04.236Z,99.90
2022-10-10T08:57:48.332Z,1.00
2022-10-10T09:00:19.014Z,1.00
2022-10-10T09:02:56.879Z,1.00
2022-10-10T09:05:52.411Z,17.00
2022-10-10T09:08:26.934Z,99.90
2022-10-10T09:11:14.545Z,1.00
2022-10-10T09:14:29.522Z,1.00
2022-10-10T09:17:05.368Z,1.00
2022-10-10T09:20:07.486Z,1.00
2022-10-10T09:22:49.099Z,99.90
2022-10-10T09:25:27.112Z,99.90
2022-10-10T09:28:01.858Z,99.90
2022-10-10T09:30:31.408Z,1.00
2022-10-10T09:33:06.270Z,99.90
2022-10-10T09:35:38.132Z,99.90
2022-10-10T09:38:11.500Z,1.00
2022-10-10T09:40:45.029Z,99.90
2022-10-10T09:43:18.885Z,99.90
2022-10-10T09:45:58.972Z,1.00
2022-10-10T09:48:33.019Z,1.00
2022-10-10T09:51:03.119Z,1.00
2022-10-10T09:53:30.605Z,1.00
2022-10-10T09:55:59.818Z,1.00
2022-10-10T09:58:43.232Z,1.00
2022-10-10T10:01:20.284Z,1.00
2022-10-10T10:04:23.380Z,99.90
2022-10-10T10:07:03.383Z,99.90
2022-10-10T10:09:30.861Z,99.90
2022-10-10T10:11:58.801Z,99.90
2022-10-10T10:14:32.345Z,99.90
2022-10-10T10:17:17.449Z,99.90
2022-10-10T10:19:46.797Z,81.30
2022-10-10T10:22:35.490Z,1.00
2022-10-10T10:25:32.024Z,1.00
2022-10-10T10:28:11.831Z,1.00
2022-10-10T10:30:40.594Z,99.90
2022-10-10T10:33:10.804Z,1.00
2022-10-10T10:35:50.174Z,99.90
2022-10-10T10:38:43.232Z,99.90
2022-10-10T10:41:37.708Z,1.00
2022-10-10T10:44:27.784Z,1.00
2022-10-10T10:47:11.345Z,99.90
2022-10-10T10:50:14.773Z,99.90
2022-10-10T10:52:57.924Z,99.90
2022-10-10T10:55:53.245Z,99.90
2022-10-10T11:01:56.318Z,99.90
2022-10-10T11:05:21.993Z,99.90
2022-10-10T11:07:44.770Z,99.90
2022-10-10T11:10:21.735Z,99.90
2022-10-10T11:13:03.498Z,99.90
2022-10-10T11:18:51.527Z,99.90
2022-10-10T11:21:25.434Z,99.90
2022-10-10T11:23:56.369Z,99.90
2022-10-10T11:26:46.986Z,99.90
2022-10-10T11:29:23.076Z,99.90
2022-10-10T11:32:03.214Z,99.90
2022-10-10T11:34:39.712Z,99.90
2022-10-10T11:37:16.665Z,99.90
2022-10-10T11:39:55.437Z,99.90
2022-10-10T11:42:46.701Z,99.90
2022-10-10T11:45:20.201Z,99.90
2022-10-10T11:47:59.062Z,99.90
2022-10-10T11:50:30.162Z,99.90
2022-10-10T11:53:25.490Z,99.90
2022-10-10T11:56:30.581Z,99.90
2022-10-10T11:59:05.314Z,99.90
2022-10-10T12:01:35.306Z,99.90
2022-10-10T12:04:02.754Z,99.90
2022-10-10T12:06:45.673Z,99.90
2022-10-10T12:09:21.876Z,99.90
2022-10-10T12:12:19.386Z,99.90
2022-10-10T12:14:54.293Z,99.90
2022-10-10T12:17:36.466Z,99.90
2022-10-10T12:20:28.000Z,99.90
2022-10-10T12:23:23.664Z,99.90
2022-10-10T12:25:51.240Z,99.90
2022-10-10T12:28:18.745Z,99.90
2022-10-10T12:30:58.155Z,99.90
2022-10-10T12:33:29.028Z,99.90
2022-10-10T12:35:56.520Z,99.90
2022-10-10T12:38:25.517Z,99.90
2022-10-10T12:41:06.482Z,99.90
2022-10-10T12:43:42.953Z,99.90
2022-10-10T12:46:43.245Z,99.90
2022-10-10T12:49:18.822Z,99.90
2022-10-10T12:52:09.592Z,99.90
2022-10-10T12:54:45.761Z,99.90
2022-10-10T12:57:13.330Z,99.90
2022-10-10T12:59:41.556Z,99.90
2022-10-10T13:02:28.136Z,99.90
2022-10-10T13:05:00.131Z,99.90
2022-10-10T13:07:27.682Z,99.90
2022-10-10T13:10:07.841Z,99.90
2022-10-10T13:12:35.650Z,99.90
2022-10-10T13:15:03.123Z,99.90
2022-10-10T13:17:41.078Z,99.90
2022-10-10T13:20:32.035Z,99.90
2022-10-10T13:23:02.755Z,99.90
2022-10-10T13:25:30.149Z,99.90
2022-10-10T13:27:57.884Z,99.90
2022-10-10T13:30:26.149Z,99.90
2022-10-10T13:32:55.045Z,99.90
2022-10-10T13:35:26.325Z,99.90
2022-10-10T13:38:00.487Z,99.90
2022-10-10T13:40:28.721Z,99.90
2022-10-10T13:42:56.619Z,99.90
2022-10-10T13:45:32.119Z,99.90
2022-10-10T13:48:02.466Z,99.90
2022-10-10T13:50:44.592Z,99.90
2022-10-10T13:53:27.139Z,99.90
2022-10-10T13:56:42.026Z,99.90
2022-10-10T13:59:13.150Z,99.90
2022-10-10T14:01:47.541Z,99.90
2022-10-10T14:04:37.024Z,99.90
2022-10-10T14:07:11.186Z,99.90
2022-10-10T14:09:41.465Z,99.90
2022-10-10T14:12:24.651Z,99.90
2022-10-10T14:14:54.885Z,99.90
2022-10-10T14:17:22.309Z,99.90
2022-10-10T14:19:50.316Z,99.90
2022-10-10T14:22:18.208Z,99.90
2022-10-10T14:24:45.687Z,99.90
2022-10-10T14:27:15.726Z,99.90
2022-10-10T14:29:43.434Z,99.90
2022-10-10T14:32:12.624Z,99.90
2022-10-10T14:34:40.546Z,99.90
2022-10-10T14:37:19.430Z,99.90
2022-10-10T14:39:47.397Z,99.90
2022-10-10T14:42:17.622Z,99.90
2022-10-10T14:44:45.266Z,99.90
2022-10-10T14:47:25.861Z,99.90
2022-10-10T14:52:56.316Z,99.90
2022-10-10T14:55:23.745Z,99.90
2022-10-10T14:57:51.213Z,99.90
2022-10-10T15:00:21.540Z,99.90
2022-10-10T15:02:49.083Z,99.90
2022-10-10T15:05:17.261Z,99.90
2022-10-10T15:07:45.463Z,99.90
2022-10-10T15:13:05.775Z,99.90
2022-10-10T15:15:33.224Z,99.90
2022-10-10T15:18:01.029Z,99.90
2022-10-10T15:20:31.878Z,99.90
2022-10-10T15:23:04.805Z,99.90
2022-10-10T15:25:33.950Z,99.90
2022-10-10T15:28:05.408Z,99.90
2022-10-10T15:30:32.926Z,99.90
2022-10-10T15:33:00.325Z,99.90
2022-10-10T15:35:39.941Z,99.90
2022-10-10T15:38:15.222Z,99.90
2022-10-10T15:40:42.647Z,99.90
2022-10-10T15:43:10.146Z,99.90
2022-10-10T15:45:55.444Z,99.90
2022-10-10T15:48:23.751Z,99.90
2022-10-10T15:50:51.593Z,99.90
2022-10-10T15:53:19.299Z,99.90
2022-10-10T15:55:47.975Z,99.90
2022-10-10T15:58:16.079Z,99.90
2022-10-10T16:00:44.679Z,99.90
2022-10-10T16:03:12.399Z,99.90
2022-10-10T16:05:41.050Z,99.90
2022-10-10T16:08:12.227Z,99.90
2022-10-10T16:10:41.105Z,99.90
2022-10-10T16:13:09.018Z,99.90
2022-10-10T16:15:36.487Z,1.00
2022-10-10T16:18:04.032Z,1.00
2022-10-10T16:20:31.500Z,1.00
2022-10-10T16:22:58.953Z,1.00
2022-10-10T16:25:26.432Z,8.30
2022-10-10T16:27:53.894Z,21.80
2022-10-10T16:30:21.491Z,97.20
2022-10-10T16:32:49.375Z,99.90
2022-10-10T16:35:16.841Z,99.90
2022-10-10T16:37:44.236Z,99.90
2022-10-10T16:40:11.973Z,99.90
2022-10-10T16:42:39.431Z,99.90
2022-10-10T16:45:07.490Z,99.90
2022-10-10T16:47:35.336Z,99.90
2022-10-10T16:50:03.724Z,99.90
2022-10-10T16:52:33.168Z,99.90
2022-10-10T16:55:00.658Z,1.00
2022-10-10T16:57:28.088Z,95.20
2022-10-10T16:59:55.542Z,99.90
2022-10-10T17:02:24.763Z,1.00
2022-10-10T17:04:55.423Z,1.00
2022-10-10T17:07:22.784Z,93.70
2022-10-10T17:09:50.212Z,56.20
2022-10-10T17:12:17.643Z,99.90
2022-10-10T17:14:45.340Z,1.00
2022-10-10T17:17:13.641Z,1.00
2022-10-10T17:19:42.240Z,22.40
2022-10-10T17:22:09.698Z,32.10
2022-10-10T17:24:37.502Z,99.90
2022-10-10T17:27:05.216Z,99.90
2022-10-10T17:29:32.673Z,1.00
2022-10-10T17:32:04.222Z,1.00
2022-10-10T17:34:34.206Z,8.90
2022-10-10T17:37:01.725Z,29.60
2022-10-10T17:39:29.138Z,1.00
2022-10-10T17:41:56.636Z,8.60
2022-10-10T17:44:24.165Z,99.90
2022-10-10T17:46:51.653Z,1.00
2022-10-10T17:49:20.514Z,1.00
2022-10-10T17:51:48.166Z,1.00
2022-10-10T17:54:15.777Z,21.60
2022-10-10T17:56:44.787Z,1.00
2022-10-10T17:59:12.862Z,63.30
2022-10-10T18:01:41.456Z,1.00
2022-10-10T18:04:08.978Z,80.80
2022-10-10T18:06:37.204Z,40.80
2022-10-10T18:09:04.726Z,99.90
2022-10-10T18:11:32.391Z,99.90
2022-10-10T18:14:02.549Z,53.30
2022-10-10T18:16:36.403Z,99.90
2022-10-10T18:19:06.045Z,1.00
2022-10-10T18:21:34.285Z,1.00
2022-10-10T18:24:01.922Z,1.00
2022-10-10T18:26:30.556Z,2.10
2022-10-10T18:28:58.818Z,99.90
2022-10-10T18:31:33.146Z,99.90
2022-10-10T18:34:01.750Z,99.90
2022-10-10T18:36:31.608Z,1.00
2022-10-10T18:39:00.579Z,99.90
2022-10-10T18:41:34.210Z,1.00
2022-10-10T18:44:07.278Z,1.00
2022-10-10T18:46:35.213Z,1.00
2022-10-10T18:49:04.656Z,1.00
2022-10-10T18:51:32.482Z,1.00
2022-10-10T18:54:03.878Z,1.00
2022-10-10T18:56:32.807Z,99.90
2022-10-10T18:59:02.827Z,21.10
2022-10-10T19:01:33.417Z,99.90
2022-10-10T19:04:01.183Z,99.90
2022-10-10T19:06:29.240Z,1.00
2022-10-10T19:08:58.408Z,1.00
2022-10-10T19:11:31.457Z,1.00
2022-10-10T19:14:00.729Z,1.00
2022-10-10T19:16:28.630Z,99.90
2022-10-10T19:19:00.100Z,1.00
2022-10-10T19:21:33.581Z,99.90
2022-10-10T19:24:01.968Z,99.90
2022-10-10T19:26:34.330Z,1.00
2022-10-10T19:29:06.812Z,1.00
2022-10-10T19:31:36.539Z,1.00
2022-10-10T19:34:04.175Z,1.00
2022-10-10T19:36:31.621Z,93.60
2022-10-10T19:39:00.257Z,1.00
2022-10-10T19:41:28.656Z,1.00
2022-10-10T19:43:58.732Z,1.00
2022-10-10T19:46:27.645Z,23.40
2022-10-10T19:48:57.795Z,99.90
2022-10-10T19:51:27.128Z,1.00
2022-10-10T19:53:54.843Z,1.00
2022-10-10T19:56:27.093Z,1.00
2022-10-10T19:58:56.869Z,1.00
2022-10-10T20:01:29.322Z,99.90
2022-10-10T20:03:58.318Z,99.90
2022-10-10T20:06:27.016Z,1.00
2022-10-10T20:08:55.096Z,99.90
2022-10-10T20:11:23.473Z,99.90
2022-10-10T20:13:55.492Z,99.90
2022-10-10T20:16:24.242Z,99.90
2022-10-10T20:18:51.818Z,99.90
2022-10-10T20:21:23.828Z,99.90
2022-10-10T20:23:51.702Z,99.90
2022-10-10T20:26:21.511Z,99.90
2022-10-10T20:28:50.996Z,99.90
2022-10-10T20:31:30.553Z,99.90
2022-10-10T20:34:00.851Z,99.90
2022-10-10T20:36:30.623Z,99.90
2022-10-10T20:39:05.097Z,99.90
2022-10-10T20:41:34.803Z,99.90
2022-10-10T20:44:04.531Z,99.90
2022-10-10T20:46:37.775Z,99.90
2022-10-10T20:49:07.450Z,99.90
2022-10-10T20:51:34.945Z,99.90
2022-10-10T20:54:05.231Z,99.90
2022-10-10T20:56:35.094Z,99.90
2022-10-10T20:59:02.865Z,99.90
2022-10-10T21:01:31.178Z,1.00
2022-10-10T21:03:58.897Z,99.90
2022-10-10T21:06:29.397Z,99.90
2022-10-10T21:08:58.658Z,99.90
2022-10-10T21:11:26.092Z,99.90
2022-10-10T21:13:56.677Z,99.90
2022-10-10T21:16:30.356Z,99.90
2022-10-10T21:18:58.639Z,99.90
2022-10-10T21:21:28.378Z,99.90
2022-10-10T21:23:56.682Z,99.90
2022-10-10T21:26:26.794Z,99.90
2022-10-10T21:28:55.437Z,99.90
2022-10-10T21:31:26.639Z,99.90
2022-10-10T21:33:54.610Z,1.00
2022-10-10T21:36:23.651Z,1.00
2022-10-10T21:38:51.082Z,1.00
2022-10-10T21:41:20.563Z,1.00
2022-10-10T21:43:54.799Z,1.00
2022-10-10T21:46:29.743Z,1.00
2022-10-10T21:49:00.492Z,1.00
2022-10-10T21:51:28.640Z,1.00
2022-10-10T21:53:59.068Z,1.00
2022-10-10T21:56:26.593Z,1.00
2022-10-10T21:58:58.838Z,1.00
2022-10-10T22:01:28.632Z,99.90
2022-10-10T22:03:56.578Z,99.90
2022-10-10T22:06:24.840Z,99.90
2022-10-10T22:08:56.286Z,1.00
2022-10-10T22:11:25.611Z,99.90
2022-10-10T22:13:53.449Z,1.00
2022-10-10T22:16:21.209Z,1.00
2022-10-10T22:18:53.468Z,1.00
2022-10-10T22:21:21.050Z,1.00
2022-10-10T22:23:48.688Z,1.00
2022-10-10T22:26:17.299Z,99.90
2022-10-10T22:28:45.813Z,1.00
2022-10-10T22:31:15.297Z,99.90
2022-10-10T22:33:43.069Z,1.00
2022-10-10T22:36:11.307Z,1.00
2022-10-10T22:38:40.291Z,1.00
2022-10-10T22:41:08.266Z,1.00
2022-10-10T22:43:36.042Z,1.00
2022-10-10T22:46:04.435Z,1.00
2022-10-10T22:48:32.230Z,1.00
2022-10-10T22:51:08.669Z,1.00
2022-10-10T22:53:36.108Z,1.00
2022-10-10T22:56:04.341Z,1.00
2022-10-10T22:58:32.358Z,1.00
2022-10-10T23:01:17.339Z,1.00
2022-10-10T23:03:45.022Z,1.00
2022-10-10T23:06:12.915Z,1.00
2022-10-10T23:08:40.499Z,1.00
2022-10-10T23:11:08.296Z,1.00
2022-10-10T23:13:35.945Z,1.00
2022-10-10T23:16:04.439Z,1.00
2022-10-10T23:18:32.498Z,1.00
2022-10-10T23:20:59.998Z,1.00
2022-10-10T23:23:27.529Z,99.90
2022-10-10T23:25:54.943Z,99.90
2022-10-10T23:28:22.396Z,99.90
2022-10-10T23:30:49.927Z,99.90
2022-10-10T23:33:17.572Z,99.90
2022-10-10T23:35:45.324Z,99.90
2022-10-10T23:38:12.684Z,99.90
2022-10-10T23:40:40.103Z,99.90
2022-10-10T23:43:07.875Z,99.90
2022-10-10T23:45:35.382Z,93.50
2022-10-10T23:48:02.799Z,99.90
2022-10-10T23:50:30.364Z,39.30
2022-10-10T23:52:57.775Z,99.90
2022-10-10T23:55:25.784Z,99.90
2022-10-10T23:57:53.203Z,99.90
